Airfield :
LOGIN :

Register | Disclaimer

   EN    FR    IT 

 










Legend :    VFR   Marginal VFR   IFR   Intensive IFR   Very Intensive IFR
Visi :
Ceiling :
>= 8 km
>= 3000ft
5 to 8 km
1000 to 3000 ft
1500m to 5 km
500 to 1000 ft
800 to 1500m
200 to 500 ft
< 800m
< 200 ft
Symbols :   Thunderstorms  Fog  Heavy snow  Heavy precipitations  Wind > 20 kt
SIGMETs :     Misc.  Thunderstorms  Icing  Turbulence  Mountain Waves  Volcanic Ashes







- Airport Elevation : 410 ft
- IATA code : AVB


LIPA - Aviano AB Pordenone

CURRENT METAR :
  • 231255Z 11005KT 9999 FEW025 FEW030CB SCT035 18/12 Q1017 RMK BKN VIS MIN 9000N WIND THR05 14006KT WIND THR23 13004KT A3005 BLU

EXPIRED METARs :
  • 231155Z 12005KT 7000 FEW025TCU SCT040 17/12 Q1017 RMK SCT VIS MIN 7000 WIND THR05 15006KT WIND THR23 14005KT A3005 WHT
  • 231055Z 10006KT 6000 FEW020TCU SCT035 17/12 Q1017 RMK BKN VIS MIN 5000N WIND THR05 11006KT WIND THR23 14007KT A3005 WHT

TAF TAF LIPA
Valid from the 23 at 12:00 until the 23 at 21:00 UTC


231100Z 2312/2321 07006KT 6000 FEW020 SCT035
PROB40
TEMPO 2313/2318 4000 SHRA FEW015CB BKN030
No reported NOTAMs for that airfield.



MET'MAP, your aeronautical weather chart ! - Copyright ORBIFLY December 2007 - Disclaimer

ORBIFLY MET'MAP TEAM :

Programming & Development : Alexandra Zaïnal
Concept & Development : Baudouin d'Aumeries
Co-Development & Prog : Marc-Olivier Méhu
Technical & hardware support : Manuel Goepfert

Contact : metmap@orbifly.com




SOURCES & CREDITS :

   NOAA